createdAt,value
2022-11-27T00:01:34.940Z,1.30
2022-11-27T00:04:04.144Z,1.20
2022-11-27T00:06:32.695Z,1.30
2022-11-27T00:09:08.060Z,1.20
2022-11-27T00:11:35.114Z,1.20
2022-11-27T00:14:03.451Z,1.20
2022-11-27T00:16:30.576Z,1.10
2022-11-27T00:18:58.296Z,1.10
2022-11-27T00:21:31.776Z,1.10
2022-11-27T00:24:02.318Z,1.00
2022-11-27T00:26:37.222Z,1.00
2022-11-27T00:29:06.181Z,1.10
2022-11-27T00:31:35.542Z,1.10
2022-11-27T00:34:06.535Z,1.00
2022-11-27T00:36:34.930Z,1.00
2022-11-27T00:39:02.445Z,1.00
2022-11-27T00:41:30.629Z,0.90
2022-11-27T00:43:58.490Z,0.90
2022-11-27T00:46:30.791Z,0.80
2022-11-27T00:49:00.251Z,0.80
2022-11-27T00:51:28.337Z,0.70
2022-11-27T00:53:56.159Z,0.70
2022-11-27T00:56:33.633Z,0.70
2022-11-27T00:59:01.085Z,0.60
2022-11-27T01:01:32.020Z,0.60
2022-11-27T01:04:01.957Z,0.60
2022-11-27T01:06:30.597Z,0.60
2022-11-27T01:08:58.832Z,0.50
2022-11-27T01:11:29.693Z,0.60
2022-11-27T01:14:00.829Z,0.60
2022-11-27T01:16:30.265Z,0.60
2022-11-27T01:18:59.396Z,0.70
2022-11-27T01:21:31.127Z,0.70
2022-11-27T01:23:58.800Z,0.80
2022-11-27T01:26:26.413Z,0.90
2022-11-27T01:28:55.735Z,0.90
2022-11-27T01:31:28.998Z,0.80
2022-11-27T01:34:00.699Z,0.80
2022-11-27T01:36:28.782Z,0.80
2022-11-27T01:38:56.561Z,0.80
2022-11-27T01:41:31.775Z,0.70
2022-11-27T01:44:26.073Z,0.70
2022-11-27T01:47:15.917Z,0.80
2022-11-27T01:49:54.015Z,0.80
2022-11-27T01:52:35.622Z,0.90
2022-11-27T01:55:28.349Z,1.10
2022-11-27T01:58:10.985Z,1.30
2022-11-27T02:00:39.575Z,1.20
2022-11-27T02:03:06.890Z,1.10
2022-11-27T02:05:34.041Z,1.10
2022-11-27T02:08:06.844Z,1.00
2022-11-27T02:10:48.201Z,1.00
2022-11-27T02:13:31.845Z,1.00
2022-11-27T02:16:26.270Z,1.00
2022-11-27T02:19:14.577Z,0.90
2022-11-27T02:22:14.584Z,0.80
2022-11-27T02:24:55.478Z,0.90
2022-11-27T02:27:54.728Z,0.80
2022-11-27T02:30:21.812Z,0.90
2022-11-27T02:33:01.291Z,0.80
2022-11-27T02:35:48.478Z,0.70
2022-11-27T02:38:23.853Z,0.70
2022-11-27T02:40:57.172Z,0.70
2022-11-27T02:43:53.141Z,0.70
2022-11-27T02:46:21.541Z,0.70
2022-11-27T02:49:05.346Z,0.70
2022-11-27T02:51:41.419Z,0.80
2022-11-27T02:54:14.966Z,0.80
2022-11-27T02:56:43.692Z,0.80
2022-11-27T02:59:14.091Z,0.90
2022-11-27T03:01:51.880Z,1.00
2022-11-27T03:04:28.571Z,1.00
2022-11-27T03:06:59.785Z,1.00
2022-11-27T03:10:06.029Z,1.00
2022-11-27T03:12:33.435Z,0.90
2022-11-27T03:15:00.539Z,0.90
2022-11-27T03:18:20.910Z,0.80
2022-11-27T03:20:59.730Z,0.70
2022-11-27T03:23:28.370Z,0.70
2022-11-27T03:25:55.457Z,0.60
2022-11-27T03:28:23.109Z,0.60
2022-11-27T03:30:50.382Z,0.50
2022-11-27T03:33:18.528Z,0.40
2022-11-27T03:35:45.511Z,0.30
2022-11-27T03:38:12.751Z,0.30
2022-11-27T03:40:59.116Z,0.20
2022-11-27T03:43:30.002Z,0.20
2022-11-27T03:46:08.446Z,0.20
2022-11-27T03:49:49.276Z,0.10
2022-11-27T03:52:56.466Z,0.00
2022-11-27T03:55:38.595Z,-0.10
2022-11-27T03:58:11.270Z,-0.20
2022-11-27T04:00:42.293Z,-0.20
2022-11-27T04:03:12.996Z,-0.20
2022-11-27T04:05:41.002Z,-0.10
2022-11-27T04:08:08.060Z,0.00
2022-11-27T04:10:35.081Z,0.10
2022-11-27T04:13:02.292Z,0.20
2022-11-27T04:15:29.383Z,0.30
2022-11-27T04:17:56.446Z,0.30
2022-11-27T04:20:23.656Z,0.30
2022-11-27T04:22:50.807Z,0.20
2022-11-27T04:25:18.146Z,0.20
2022-11-27T04:27:45.218Z,0.20
2022-11-27T04:30:13.175Z,0.10
2022-11-27T04:32:40.525Z,-0.10
2022-11-27T04:35:08.298Z,-0.20
2022-11-27T04:37:35.684Z,-0.20
2022-11-27T04:40:03.673Z,-0.30
2022-11-27T04:42:30.709Z,-0.40
2022-11-27T04:44:57.846Z,-0.30
2022-11-27T04:47:25.166Z,-0.30
2022-11-27T04:49:52.274Z,-0.40
2022-11-27T04:52:19.365Z,-0.40
2022-11-27T04:54:46.522Z,-0.40
2022-11-27T04:57:13.558Z,-0.40
2022-11-27T04:59:41.017Z,-0.40
2022-11-27T05:02:08.075Z,-0.30
2022-11-27T05:04:35.213Z,-0.20
2022-11-27T05:07:03.673Z,-0.20
2022-11-27T05:09:30.681Z,-0.20
2022-11-27T05:11:57.786Z,-0.20
2022-11-27T05:14:29.303Z,-0.10
2022-11-27T05:16:58.953Z,0.00
2022-11-27T05:19:30.007Z,-0.10
2022-11-27T05:21:57.749Z,-0.10
2022-11-27T05:24:27.885Z,-0.10
2022-11-27T05:26:56.196Z,-0.20
2022-11-27T05:29:24.463Z,-0.30
2022-11-27T05:31:52.035Z,-0.40
2022-11-27T05:34:19.187Z,-0.50
2022-11-27T05:36:46.784Z,-0.40
2022-11-27T05:39:14.046Z,-0.60
2022-11-27T05:41:43.209Z,-0.60
2022-11-27T05:44:16.717Z,-0.60
2022-11-27T05:46:43.910Z,-0.60
2022-11-27T05:49:16.162Z,-0.60
2022-11-27T05:51:50.361Z,-0.60
2022-11-27T05:54:18.688Z,-0.70
2022-11-27T05:56:45.795Z,-0.70
2022-11-27T05:59:12.879Z,-0.70
2022-11-27T06:01:40.000Z,-0.70
2022-11-27T06:04:07.191Z,-0.60
2022-11-27T06:06:34.186Z,-0.60
2022-11-27T06:09:01.247Z,-0.60
2022-11-27T06:11:28.446Z,-0.60
2022-11-27T06:13:55.528Z,-0.70
2022-11-27T06:16:24.774Z,-0.70
2022-11-27T06:18:56.236Z,-0.80
2022-11-27T06:21:24.529Z,-0.80
2022-11-27T06:23:55.794Z,-0.90
2022-11-27T06:26:30.608Z,-0.90
2022-11-27T06:29:01.366Z,-0.90
2022-11-27T06:31:31.454Z,-0.90
2022-11-27T06:33:59.808Z,-0.90
2022-11-27T06:36:34.665Z,-0.90
2022-11-27T06:39:02.387Z,-0.90
2022-11-27T06:41:29.629Z,-0.80
2022-11-27T06:43:59.764Z,-0.70
2022-11-27T06:46:28.353Z,-0.60
2022-11-27T06:48:55.940Z,-0.50
2022-11-27T06:51:26.014Z,-0.30
2022-11-27T06:53:54.302Z,-0.20
2022-11-27T06:56:27.650Z,0.00
2022-11-27T06:58:59.299Z,0.10
2022-11-27T07:01:29.427Z,0.00
2022-11-27T07:03:56.870Z,0.00
2022-11-27T07:06:26.941Z,-0.10
2022-11-27T07:08:55.450Z,0.00
2022-11-27T07:11:26.818Z,0.00
2022-11-27T07:13:57.417Z,0.00
2022-11-27T07:16:25.421Z,0.20
2022-11-27T07:19:01.916Z,0.30
2022-11-27T07:21:29.325Z,0.40
2022-11-27T07:23:57.585Z,0.50
2022-11-27T07:26:29.150Z,0.60
2022-11-27T07:28:56.925Z,0.70
2022-11-27T07:31:28.388Z,0.70
2022-11-27T07:33:56.463Z,0.80
2022-11-27T07:36:27.419Z,0.80
2022-11-27T07:38:54.562Z,0.80
2022-11-27T07:41:22.161Z,0.80
2022-11-27T07:43:49.306Z,0.90
2022-11-27T07:46:25.526Z,0.90
2022-11-27T07:48:52.934Z,1.00
2022-11-27T07:51:22.545Z,1.10
2022-11-27T07:53:52.087Z,1.30
2022-11-27T07:56:20.176Z,1.50
2022-11-27T07:58:47.822Z,1.60
2022-11-27T08:01:18.991Z,1.80
2022-11-27T08:03:46.353Z,2.00
2022-11-27T08:06:26.579Z,2.20
2022-11-27T08:08:57.580Z,2.40
2022-11-27T08:11:29.839Z,2.50
2022-11-27T08:14:00.718Z,2.70
2022-11-27T08:16:29.004Z,2.80
2022-11-27T08:18:56.926Z,3.00
2022-11-27T08:21:26.350Z,3.20
2022-11-27T08:23:53.429Z,3.10
2022-11-27T08:26:21.413Z,3.10
2022-11-27T08:28:48.579Z,3.00
2022-11-27T08:31:15.811Z,3.10
2022-11-27T08:33:42.960Z,2.80
2022-11-27T08:36:14.976Z,2.90
2022-11-27T08:38:44.662Z,3.00
2022-11-27T08:41:11.785Z,3.00
2022-11-27T08:43:38.853Z,3.20
2022-11-27T08:46:07.271Z,3.30
2022-11-27T08:48:34.626Z,3.50
2022-11-27T08:51:13.645Z,3.50
2022-11-27T08:53:41.716Z,3.60
2022-11-27T08:56:17.303Z,3.70
2022-11-27T08:58:45.217Z,3.80
2022-11-27T09:01:17.440Z,3.90
2022-11-27T09:03:44.821Z,3.90
2022-11-27T09:06:16.061Z,3.90
2022-11-27T09:08:43.658Z,3.60
2022-11-27T09:11:13.027Z,3.60
2022-11-27T09:13:40.842Z,3.60
2022-11-27T09:16:13.199Z,3.70
2022-11-27T09:18:41.146Z,4.00
2022-11-27T09:21:11.353Z,4.20
2022-11-27T09:23:38.830Z,4.30
2022-11-27T09:26:10.367Z,4.50
2022-11-27T09:28:38.849Z,4.70
2022-11-27T09:31:08.852Z,4.90
2022-11-27T09:33:39.495Z,5.10
2022-11-27T09:36:13.489Z,5.30
2022-11-27T09:38:40.696Z,5.40
2022-11-27T09:41:19.790Z,5.50
2022-11-27T09:44:24.950Z,5.70
2022-11-27T09:46:54.550Z,5.80
2022-11-27T09:49:39.594Z,5.90
2022-11-27T09:52:47.630Z,6.00
2022-11-27T09:55:37.166Z,6.20
2022-11-27T09:58:20.549Z,6.30
2022-11-27T10:00:48.415Z,6.40
2022-11-27T10:03:26.656Z,6.40
2022-11-27T10:06:35.209Z,6.50
2022-11-27T10:09:37.206Z,6.70
2022-11-27T10:12:13.378Z,6.80
2022-11-27T10:14:59.754Z,7.00
2022-11-27T10:17:52.429Z,7.10
2022-11-27T10:20:46.953Z,7.30
2022-11-27T10:23:51.828Z,7.50
2022-11-27T10:26:25.958Z,7.50
2022-11-27T10:29:20.037Z,7.50
2022-11-27T10:31:52.477Z,7.50
2022-11-27T10:34:37.544Z,7.50
2022-11-27T10:38:05.233Z,7.50
2022-11-27T10:40:48.196Z,7.60
2022-11-27T10:43:26.011Z,7.80
2022-11-27T10:46:09.450Z,8.00
2022-11-27T10:48:36.669Z,8.20
2022-11-27T10:51:03.894Z,8.30
2022-11-27T10:53:37.462Z,8.30
2022-11-27T10:56:16.186Z,8.50
2022-11-27T10:59:04.626Z,8.50
2022-11-27T11:01:45.105Z,8.30
2022-11-27T11:04:36.828Z,8.40
2022-11-27T11:07:03.070Z,8.50
2022-11-27T11:09:35.211Z,8.70
2022-11-27T11:12:18.549Z,9.10
2022-11-27T11:15:00.669Z,9.60
2022-11-27T11:17:37.244Z,9.90
2022-11-27T11:20:22.895Z,10.00
2022-11-27T11:22:51.169Z,10.00
2022-11-27T11:25:21.044Z,10.00
2022-11-27T11:27:50.326Z,9.80
2022-11-27T11:30:26.673Z,9.90
2022-11-27T11:33:02.388Z,9.90
2022-11-27T11:35:34.819Z,9.90
2022-11-27T11:38:05.730Z,9.90
2022-11-27T11:40:36.382Z,10.00
2022-11-27T11:43:24.589Z,10.10
2022-11-27T11:45:51.764Z,10.20
2022-11-27T11:48:27.641Z,10.60
2022-11-27T11:51:17.909Z,11.20
2022-11-27T11:54:10.269Z,11.70
2022-11-27T11:56:44.873Z,12.20
2022-11-27T11:59:20.788Z,12.50
2022-11-27T12:02:26.941Z,12.50
2022-11-27T12:05:09.900Z,13.10
2022-11-27T12:08:13.762Z,13.70
2022-11-27T12:11:18.683Z,14.50
2022-11-27T12:14:05.941Z,15.20
2022-11-27T12:16:49.321Z,15.10
2022-11-27T12:19:42.607Z,15.10
2022-11-27T12:22:40.360Z,15.50
2022-11-27T12:25:25.346Z,16.00
2022-11-27T12:28:45.928Z,16.50
2022-11-27T12:31:52.420Z,16.80
2022-11-27T12:34:31.725Z,17.00
2022-11-27T12:37:35.724Z,17.30
2022-11-27T12:40:23.683Z,17.40
2022-11-27T12:43:22.816Z,17.80
2022-11-27T12:45:57.719Z,17.70
2022-11-27T12:48:38.156Z,17.60
2022-11-27T12:51:30.186Z,17.50
2022-11-27T12:54:06.773Z,16.90
2022-11-27T12:56:55.101Z,16.40
2022-11-27T12:59:51.275Z,15.90
2022-11-27T13:02:49.173Z,15.40
2022-11-27T13:05:20.531Z,15.00
2022-11-27T13:08:10.158Z,14.80
2022-11-27T13:10:47.874Z,14.80
2022-11-27T13:13:39.103Z,14.60
2022-11-27T13:16:27.154Z,14.20
2022-11-27T13:19:04.737Z,13.80
2022-11-27T13:21:34.477Z,14.10
2022-11-27T13:24:03.305Z,14.30
2022-11-27T13:26:36.389Z,14.50
2022-11-27T13:29:27.267Z,14.40
2022-11-27T13:31:59.276Z,13.80
2022-11-27T13:34:29.765Z,13.30
2022-11-27T13:37:08.638Z,12.70
2022-11-27T13:39:40.149Z,12.10
2022-11-27T13:42:19.562Z,11.60
2022-11-27T13:45:00.000Z,11.30
2022-11-27T13:47:30.955Z,10.80
2022-11-27T13:50:06.779Z,10.40
2022-11-27T13:52:35.640Z,10.10
2022-11-27T13:55:10.007Z,9.80
2022-11-27T13:57:38.542Z,9.70
2022-11-27T14:00:16.401Z,9.30
2022-11-27T14:02:50.158Z,9.20
2022-11-27T14:05:36.261Z,9.00
2022-11-27T14:08:03.564Z,8.80
2022-11-27T14:10:33.056Z,8.60
2022-11-27T14:13:07.933Z,8.50
2022-11-27T14:15:40.857Z,8.50
2022-11-27T14:18:21.273Z,8.40
2022-11-27T14:20:57.501Z,8.30
2022-11-27T14:23:51.170Z,8.20
2022-11-27T14:26:24.947Z,8.10
2022-11-27T14:28:56.462Z,8.20
2022-11-27T14:31:37.887Z,8.10
2022-11-27T14:34:16.134Z,8.20
2022-11-27T14:36:44.018Z,7.90
2022-11-27T14:39:23.083Z,7.80
2022-11-27T14:42:08.060Z,7.80
2022-11-27T14:44:35.607Z,7.60
2022-11-27T14:47:06.006Z,7.40
2022-11-27T14:49:34.445Z,7.40
2022-11-27T14:52:16.824Z,7.30
2022-11-27T14:54:45.189Z,7.30
2022-11-27T14:57:24.155Z,7.30
2022-11-27T15:00:16.961Z,7.20
2022-11-27T15:02:45.682Z,7.20
2022-11-27T15:05:24.687Z,7.10
2022-11-27T15:07:54.917Z,7.10
2022-11-27T15:10:36.503Z,6.90
2022-11-27T15:13:06.211Z,6.80
2022-11-27T15:15:40.672Z,6.80
2022-11-27T15:18:09.532Z,6.80
2022-11-27T15:20:43.846Z,6.80
2022-11-27T15:23:24.840Z,6.80
2022-11-27T15:26:12.594Z,6.80
2022-11-27T15:28:54.853Z,6.70
2022-11-27T15:31:22.757Z,6.80
2022-11-27T15:34:02.678Z,6.80
2022-11-27T15:36:43.270Z,6.80
2022-11-27T15:39:37.243Z,6.70
2022-11-27T15:42:09.679Z,6.60
2022-11-27T15:44:36.936Z,6.70
2022-11-27T15:47:08.580Z,6.60
2022-11-27T15:49:35.973Z,6.70
2022-11-27T15:52:04.470Z,6.70
2022-11-27T15:54:31.573Z,6.80
2022-11-27T15:56:58.597Z,6.80
2022-11-27T15:59:27.337Z,6.90
2022-11-27T16:01:55.493Z,6.90
2022-11-27T16:04:22.543Z,6.90
2022-11-27T16:06:49.542Z,6.90
2022-11-27T16:09:16.729Z,6.90
2022-11-27T16:11:44.046Z,6.90
2022-11-27T16:14:11.968Z,6.90
2022-11-27T16:16:39.927Z,6.90
2022-11-27T16:19:07.485Z,6.90
2022-11-27T16:21:35.739Z,6.70
2022-11-27T16:24:06.704Z,6.70
2022-11-27T16:26:34.362Z,6.60
2022-11-27T16:29:01.468Z,6.60
2022-11-27T16:31:29.914Z,6.50
2022-11-27T16:33:57.169Z,6.40
2022-11-27T16:36:25.389Z,6.30
2022-11-27T16:38:54.694Z,6.10
2022-11-27T16:41:23.352Z,6.10
2022-11-27T16:43:53.029Z,6.00
2022-11-27T16:46:29.964Z,6.00
2022-11-27T16:48:59.347Z,6.00
2022-11-27T16:51:29.557Z,6.00
2022-11-27T16:53:58.417Z,5.90
2022-11-27T16:56:29.449Z,6.00
2022-11-27T16:59:02.735Z,5.90
2022-11-27T17:01:35.351Z,6.00
2022-11-27T17:04:09.050Z,6.00
2022-11-27T17:06:38.702Z,6.00
2022-11-27T17:09:08.432Z,5.90
2022-11-27T17:11:37.943Z,6.00
2022-11-27T17:14:08.575Z,6.00
2022-11-27T17:16:38.874Z,6.00
2022-11-27T17:19:06.208Z,6.00
2022-11-27T17:21:35.430Z,5.90
2022-11-27T17:24:14.313Z,6.00
2022-11-27T17:26:43.701Z,5.90
2022-11-27T17:29:13.057Z,5.90
2022-11-27T17:31:40.815Z,5.90
2022-11-27T17:34:10.509Z,5.80
2022-11-27T17:36:38.782Z,5.80
2022-11-27T17:39:06.525Z,5.80
2022-11-27T17:41:34.418Z,5.80
2022-11-27T17:44:06.672Z,5.90
2022-11-27T17:46:34.768Z,6.00
2022-11-27T17:49:03.857Z,6.00
2022-11-27T17:51:33.165Z,6.00
2022-11-27T17:54:01.934Z,6.00
2022-11-27T17:56:30.117Z,6.00
2022-11-27T17:58:57.156Z,6.10
2022-11-27T18:01:29.210Z,6.10
2022-11-27T18:04:00.572Z,6.10
2022-11-27T18:06:27.871Z,6.10
2022-11-27T18:08:56.666Z,6.10
2022-11-27T18:11:27.910Z,6.10
2022-11-27T18:13:55.402Z,6.00
2022-11-27T18:16:29.274Z,6.00
2022-11-27T18:18:58.195Z,6.00
2022-11-27T18:21:29.177Z,5.90
2022-11-27T18:29:31.115Z,5.90
2022-11-27T18:31:58.290Z,6.00
2022-11-27T18:34:25.457Z,6.00
2022-11-27T18:36:57.210Z,6.00
2022-11-27T18:39:24.339Z,6.00
2022-11-27T18:41:52.070Z,6.00
2022-11-27T18:44:19.275Z,6.10
2022-11-27T18:46:46.425Z,6.10
2022-11-27T18:49:14.833Z,6.20
2022-11-27T18:51:41.832Z,6.20
2022-11-27T18:54:08.898Z,6.30
2022-11-27T18:56:37.220Z,6.30
2022-11-27T18:59:06.213Z,6.30
2022-11-27T19:01:41.937Z,6.20
2022-11-27T19:04:11.291Z,6.30
2022-11-27T19:06:42.247Z,6.30
2022-11-27T19:09:11.487Z,6.30
2022-11-27T19:11:39.737Z,6.40
2022-11-27T19:14:07.954Z,6.40
2022-11-27T19:16:46.492Z,6.40
2022-11-27T19:19:53.264Z,6.50
2022-11-27T19:22:08.003Z,6.50
2022-11-27T19:24:35.505Z,6.50
2022-11-27T19:27:02.850Z,6.40
2022-11-27T19:29:29.925Z,6.40
2022-11-27T19:31:59.014Z,6.40
2022-11-27T19:34:26.265Z,6.40
2022-11-27T19:36:53.414Z,6.40
2022-11-27T19:39:20.574Z,6.40
2022-11-27T19:41:47.660Z,6.40
2022-11-27T19:44:15.716Z,6.40
2022-11-27T19:46:44.734Z,6.40
2022-11-27T19:49:17.801Z,6.40
2022-11-27T19:51:45.533Z,6.40
2022-11-27T19:54:14.627Z,6.40
2022-11-27T19:56:42.700Z,6.40
2022-11-27T19:59:12.352Z,6.40
2022-11-27T20:01:40.541Z,6.40
2022-11-27T20:04:10.701Z,6.50
2022-11-27T20:06:37.917Z,6.50
2022-11-27T20:09:06.257Z,6.60
2022-11-27T20:11:38.260Z,6.50
2022-11-27T20:14:06.799Z,6.50
2022-11-27T20:16:36.228Z,6.50
2022-11-27T20:19:06.065Z,6.40
2022-11-27T20:21:33.515Z,6.50
2022-11-27T20:24:02.674Z,6.40
2022-11-27T20:26:30.741Z,6.40
2022-11-27T20:28:58.917Z,6.40
2022-11-27T20:31:31.036Z,6.40
2022-11-27T20:34:02.001Z,6.40
2022-11-27T20:36:32.663Z,6.40
2022-11-27T20:39:05.124Z,6.30
2022-11-27T20:41:32.164Z,6.30
2022-11-27T20:44:02.448Z,6.20
2022-11-27T20:46:29.582Z,6.20
2022-11-27T20:48:57.738Z,6.20
2022-11-27T20:51:31.026Z,6.20
2022-11-27T20:54:04.335Z,6.20
2022-11-27T20:56:32.166Z,6.10
2022-11-27T20:58:59.809Z,6.10
2022-11-27T21:01:30.086Z,6.10
2022-11-27T21:04:00.696Z,6.00
2022-11-27T21:06:31.060Z,6.00
2022-11-27T21:09:02.042Z,6.10
2022-11-27T21:11:32.215Z,6.00
2022-11-27T21:14:07.494Z,6.00
2022-11-27T21:16:39.458Z,6.00
2022-11-27T21:19:13.279Z,6.00
2022-11-27T21:21:40.388Z,6.00
2022-11-27T21:24:07.988Z,6.00
2022-11-27T21:26:35.387Z,6.00
2022-11-27T21:29:02.509Z,6.00
2022-11-27T21:31:35.936Z,6.00
2022-11-27T21:34:07.511Z,6.00
2022-11-27T21:36:37.532Z,6.00
2022-11-27T21:39:10.786Z,6.00
2022-11-27T21:41:37.876Z,6.00
2022-11-27T21:44:05.748Z,6.00
2022-11-27T21:46:33.699Z,5.90
2022-11-27T21:49:01.614Z,5.90
2022-11-27T21:51:29.669Z,5.90
2022-11-27T21:53:58.777Z,5.90
2022-11-27T21:56:29.316Z,5.90
2022-11-27T21:58:56.501Z,6.00
2022-11-27T22:01:25.932Z,5.90
2022-11-27T22:03:54.806Z,5.90
2022-11-27T22:06:26.444Z,6.00
2022-11-27T22:08:57.688Z,6.00
2022-11-27T22:11:28.134Z,6.00
2022-11-27T22:13:57.362Z,6.00
2022-11-27T22:16:31.701Z,5.90
2022-11-27T22:19:00.575Z,5.90
2022-11-27T22:21:30.197Z,5.90
2022-11-27T22:23:58.569Z,5.90
2022-11-27T22:26:26.009Z,5.90
2022-11-27T22:28:53.413Z,5.90
2022-11-27T22:31:28.119Z,5.90
2022-11-27T22:33:55.544Z,5.90
2022-11-27T22:36:26.546Z,5.90
2022-11-27T22:38:55.435Z,5.90
2022-11-27T22:41:25.542Z,5.90
2022-11-27T22:43:53.381Z,5.90
2022-11-27T22:46:34.056Z,5.90
2022-11-27T22:49:05.114Z,5.90
2022-11-27T22:51:35.385Z,5.90
2022-11-27T22:54:06.859Z,5.90
2022-11-27T22:56:34.218Z,5.90
2022-11-27T22:59:30.414Z,5.80
2022-11-27T23:01:49.324Z,5.90
2022-11-27T23:04:16.624Z,5.90
2022-11-27T23:06:48.011Z,5.80
2022-11-27T23:09:17.938Z,5.80
2022-11-27T23:11:45.483Z,5.70
2022-11-27T23:14:12.600Z,5.80
2022-11-27T23:16:40.146Z,5.80
2022-11-27T23:19:07.381Z,5.70
2022-11-27T23:21:39.733Z,5.70
2022-11-27T23:24:11.149Z,5.60
2022-11-27T23:26:38.591Z,5.60
2022-11-27T23:29:05.644Z,5.60
2022-11-27T23:31:37.085Z,5.50
2022-11-27T23:34:10.140Z,5.60
2022-11-27T23:36:37.520Z,5.50
2022-11-27T23:39:08.978Z,5.50
2022-11-27T23:41:36.322Z,5.40
2022-11-27T23:44:03.632Z,5.50
2022-11-27T23:46:31.583Z,5.50
2022-11-27T23:49:00.261Z,5.50
2022-11-27T23:51:31.730Z,5.50
2022-11-27T23:54:00.154Z,5.50
2022-11-27T23:56:31.375Z,5.50
2022-11-27T23:58:59.347Z,5.40
